sensor_id;sensor_type;location;lat;lon;timestamp;P1;durP1;ratioP1;P2;durP2;ratioP2
20391;SDS011;10355;53.688;10.078;2023-04-06T00:02:24;5.35;;;3.10;;
20391;SDS011;10355;53.688;10.078;2023-04-06T00:05:07;4.93;;;2.70;;
20391;SDS011;10355;53.688;10.078;2023-04-06T00:07:50;4.18;;;2.80;;
20391;SDS011;10355;53.688;10.078;2023-04-06T00:10:34;9.13;;;3.70;;
20391;SDS011;10355;53.688;10.078;2023-04-06T00:13:18;10.63;;;5.05;;
20391;SDS011;10355;53.688;10.078;2023-04-06T00:16:01;10.07;;;5.28;;
20391;SDS011;10355;53.688;10.078;2023-04-06T00:18:44;6.95;;;3.90;;
20391;SDS011;10355;53.688;10.078;2023-04-06T00:21:27;10.02;;;4.10;;
20391;SDS011;10355;53.688;10.078;2023-04-06T00:24:10;6.30;;;3.63;;
20391;SDS011;10355;53.688;10.078;2023-04-06T00:26:52;9.52;;;3.97;;
20391;SDS011;10355;53.688;10.078;2023-04-06T00:29:36;5.78;;;3.70;;
20391;SDS011;10355;53.688;10.078;2023-04-06T00:32:20;5.22;;;3.20;;
20391;SDS011;10355;53.688;10.078;2023-04-06T00:35:03;4.80;;;2.92;;
20391;SDS011;10355;53.688;10.078;2023-04-06T00:37:47;7.03;;;3.00;;
20391;SDS011;10355;53.688;10.078;2023-04-06T00:40:30;6.35;;;2.83;;
20391;SDS011;10355;53.688;10.078;2023-04-06T00:43:14;4.18;;;2.97;;
20391;SDS011;10355;53.688;10.078;2023-04-06T00:45:59;4.68;;;2.83;;
20391;SDS011;10355;53.688;10.078;2023-04-06T00:48:42;5.50;;;2.97;;
20391;SDS011;10355;53.688;10.078;2023-04-06T00:51:25;4.35;;;2.70;;
20391;SDS011;10355;53.688;10.078;2023-04-06T00:54:08;4.20;;;2.53;;
20391;SDS011;10355;53.688;10.078;2023-04-06T00:56:50;4.53;;;2.70;;
20391;SDS011;10355;53.688;10.078;2023-04-06T00:59:34;4.40;;;3.00;;
20391;SDS011;10355;53.688;10.078;2023-04-06T01:02:22;4.28;;;2.65;;
20391;SDS011;10355;53.688;10.078;2023-04-06T01:05:07;4.55;;;2.70;;
20391;SDS011;10355;53.688;10.078;2023-04-06T01:08:00;4.80;;;2.85;;
20391;SDS011;10355;53.688;10.078;2023-04-06T01:10:43;6.75;;;3.08;;
20391;SDS011;10355;53.688;10.078;2023-04-06T01:13:37;3.40;;;2.45;;
20391;SDS011;10355;53.688;10.078;2023-04-06T01:16:26;6.07;;;3.33;;
20391;SDS011;10355;53.688;10.078;2023-04-06T01:19:20;5.30;;;3.17;;
20391;SDS011;10355;53.688;10.078;2023-04-06T01:22:07;4.95;;;3.00;;
20391;SDS011;10355;53.688;10.078;2023-04-06T01:25:00;6.30;;;3.20;;
20391;SDS011;10355;53.688;10.078;2023-04-06T01:27:59;7.65;;;3.50;;
20391;SDS011;10355;53.688;10.078;2023-04-06T01:31:02;5.45;;;3.05;;
20391;SDS011;10355;53.688;10.078;2023-04-06T01:34:02;5.15;;;2.95;;
20391;SDS011;10355;53.688;10.078;2023-04-06T01:36:44;5.00;;;3.00;;
20391;SDS011;10355;53.688;10.078;2023-04-06T01:39:39;5.13;;;3.33;;
20391;SDS011;10355;53.688;10.078;2023-04-06T01:42:24;5.63;;;3.47;;
20391;SDS011;10355;53.688;10.078;2023-04-06T01:45:07;5.50;;;3.10;;
20391;SDS011;10355;53.688;10.078;2023-04-06T01:47:51;5.57;;;3.15;;
20391;SDS011;10355;53.688;10.078;2023-04-06T01:50:37;6.13;;;3.40;;
20391;SDS011;10355;53.688;10.078;2023-04-06T01:53:22;6.78;;;2.85;;
20391;SDS011;10355;53.688;10.078;2023-04-06T01:56:06;4.70;;;2.90;;
20391;SDS011;10355;53.688;10.078;2023-04-06T01:58:58;5.30;;;2.88;;
20391;SDS011;10355;53.688;10.078;2023-04-06T02:01:48;4.35;;;2.80;;
20391;SDS011;10355;53.688;10.078;2023-04-06T02:04:32;5.60;;;3.20;;
20391;SDS011;10355;53.688;10.078;2023-04-06T02:07:22;8.68;;;3.05;;
20391;SDS011;10355;53.688;10.078;2023-04-06T02:10:10;3.78;;;2.90;;
20391;SDS011;10355;53.688;10.078;2023-04-06T02:12:53;6.00;;;3.20;;
20391;SDS011;10355;53.688;10.078;2023-04-06T02:15:41;5.78;;;3.17;;
20391;SDS011;10355;53.688;10.078;2023-04-06T02:18:24;5.10;;;3.05;;
20391;SDS011;10355;53.688;10.078;2023-04-06T02:21:06;4.55;;;2.80;;
20391;SDS011;10355;53.688;10.078;2023-04-06T02:23:49;4.88;;;3.08;;
20391;SDS011;10355;53.688;10.078;2023-04-06T02:26:32;5.85;;;2.80;;
20391;SDS011;10355;53.688;10.078;2023-04-06T02:29:15;8.93;;;3.58;;
20391;SDS011;10355;53.688;10.078;2023-04-06T02:31:59;4.30;;;2.90;;
20391;SDS011;10355;53.688;10.078;2023-04-06T02:34:44;6.00;;;3.15;;
20391;SDS011;10355;53.688;10.078;2023-04-06T02:37:27;4.80;;;2.80;;
20391;SDS011;10355;53.688;10.078;2023-04-06T02:40:10;5.57;;;2.90;;
20391;SDS011;10355;53.688;10.078;2023-04-06T02:42:53;4.85;;;3.08;;
20391;SDS011;10355;53.688;10.078;2023-04-06T02:45:42;5.93;;;2.90;;
20391;SDS011;10355;53.688;10.078;2023-04-06T02:48:27;5.03;;;2.90;;
20391;SDS011;10355;53.688;10.078;2023-04-06T02:51:09;4.93;;;3.00;;
20391;SDS011;10355;53.688;10.078;2023-04-06T02:53:53;4.65;;;2.78;;
20391;SDS011;10355;53.688;10.078;2023-04-06T02:56:36;5.20;;;3.00;;
20391;SDS011;10355;53.688;10.078;2023-04-06T02:59:20;4.18;;;2.85;;
20391;SDS011;10355;53.688;10.078;2023-04-06T03:02:23;5.78;;;3.30;;
20391;SDS011;10355;53.688;10.078;2023-04-06T03:05:11;4.10;;;2.70;;
20391;SDS011;10355;53.688;10.078;2023-04-06T03:07:57;6.30;;;3.08;;
20391;SDS011;10355;53.688;10.078;2023-04-06T03:10:50;4.95;;;2.83;;
20391;SDS011;10355;53.688;10.078;2023-04-06T03:13:33;5.38;;;3.05;;
20391;SDS011;10355;53.688;10.078;2023-04-06T03:16:15;6.30;;;3.10;;
20391;SDS011;10355;53.688;10.078;2023-04-06T03:18:58;4.82;;;3.05;;
20391;SDS011;10355;53.688;10.078;2023-04-06T03:21:43;5.25;;;2.75;;
20391;SDS011;10355;53.688;10.078;2023-04-06T03:24:27;5.00;;;2.97;;
20391;SDS011;10355;53.688;10.078;2023-04-06T03:27:10;5.72;;;3.03;;
20391;SDS011;10355;53.688;10.078;2023-04-06T03:29:54;4.95;;;3.00;;
20391;SDS011;10355;53.688;10.078;2023-04-06T03:32:44;6.20;;;3.17;;
20391;SDS011;10355;53.688;10.078;2023-04-06T03:35:27;7.97;;;2.90;;
20391;SDS011;10355;53.688;10.078;2023-04-06T03:38:12;5.50;;;2.85;;
20391;SDS011;10355;53.688;10.078;2023-04-06T03:40:55;5.80;;;3.10;;
20391;SDS011;10355;53.688;10.078;2023-04-06T03:43:40;6.72;;;3.63;;
20391;SDS011;10355;53.688;10.078;2023-04-06T03:46:23;7.88;;;3.67;;
20391;SDS011;10355;53.688;10.078;2023-04-06T03:49:08;5.78;;;2.92;;
20391;SDS011;10355;53.688;10.078;2023-04-06T03:51:52;4.30;;;2.67;;
20391;SDS011;10355;53.688;10.078;2023-04-06T03:54:36;4.80;;;2.67;;
20391;SDS011;10355;53.688;10.078;2023-04-06T03:57:19;4.72;;;3.10;;
20391;SDS011;10355;53.688;10.078;2023-04-06T04:00:02;6.00;;;3.05;;
20391;SDS011;10355;53.688;10.078;2023-04-06T04:02:52;4.93;;;3.30;;
20391;SDS011;10355;53.688;10.078;2023-04-06T04:05:35;5.60;;;3.20;;
20391;SDS011;10355;53.688;10.078;2023-04-06T04:08:18;6.88;;;3.63;;
20391;SDS011;10355;53.688;10.078;2023-04-06T04:11:02;4.88;;;3.25;;
20391;SDS011;10355;53.688;10.078;2023-04-06T04:13:46;6.82;;;3.35;;
20391;SDS011;10355;53.688;10.078;2023-04-06T04:16:28;6.57;;;3.60;;
20391;SDS011;10355;53.688;10.078;2023-04-06T04:19:11;6.13;;;3.40;;
20391;SDS011;10355;53.688;10.078;2023-04-06T04:21:54;5.25;;;3.50;;
20391;SDS011;10355;53.688;10.078;2023-04-06T04:24:45;6.85;;;3.55;;
20391;SDS011;10355;53.688;10.078;2023-04-06T04:27:29;6.50;;;4.07;;
20391;SDS011;10355;53.688;10.078;2023-04-06T04:30:12;6.30;;;3.90;;
20391;SDS011;10355;53.688;10.078;2023-04-06T04:32:56;7.28;;;4.10;;
20391;SDS011;10355;53.688;10.078;2023-04-06T04:35:39;7.53;;;3.70;;
20391;SDS011;10355;53.688;10.078;2023-04-06T04:38:23;7.47;;;3.83;;
20391;SDS011;10355;53.688;10.078;2023-04-06T04:41:09;7.63;;;3.50;;
20391;SDS011;10355;53.688;10.078;2023-04-06T04:43:56;8.73;;;3.85;;
20391;SDS011;10355;53.688;10.078;2023-04-06T04:46:40;7.28;;;3.53;;
20391;SDS011;10355;53.688;10.078;2023-04-06T04:49:25;4.53;;;3.25;;
20391;SDS011;10355;53.688;10.078;2023-04-06T04:52:09;7.45;;;3.80;;
20391;SDS011;10355;53.688;10.078;2023-04-06T04:55:09;5.97;;;3.70;;
20391;SDS011;10355;53.688;10.078;2023-04-06T04:57:54;6.22;;;3.90;;
20391;SDS011;10355;53.688;10.078;2023-04-06T05:00:48;6.55;;;3.80;;
20391;SDS011;10355;53.688;10.078;2023-04-06T05:03:32;6.25;;;3.78;;
20391;SDS011;10355;53.688;10.078;2023-04-06T05:06:19;6.13;;;3.80;;
20391;SDS011;10355;53.688;10.078;2023-04-06T05:09:02;7.57;;;3.83;;
20391;SDS011;10355;53.688;10.078;2023-04-06T05:11:45;6.43;;;4.07;;
20391;SDS011;10355;53.688;10.078;2023-04-06T05:14:28;6.82;;;3.95;;
20391;SDS011;10355;53.688;10.078;2023-04-06T05:17:13;7.63;;;4.53;;
20391;SDS011;10355;53.688;10.078;2023-04-06T05:19:56;7.45;;;3.85;;
20391;SDS011;10355;53.688;10.078;2023-04-06T05:22:40;7.32;;;4.25;;
20391;SDS011;10355;53.688;10.078;2023-04-06T05:25:24;7.05;;;4.05;;
20391;SDS011;10355;53.688;10.078;2023-04-06T05:28:11;10.05;;;4.40;;
20391;SDS011;10355;53.688;10.078;2023-04-06T05:30:55;6.07;;;3.50;;
20391;SDS011;10355;53.688;10.078;2023-04-06T05:33:41;7.07;;;4.30;;
20391;SDS011;10355;53.688;10.078;2023-04-06T05:36:27;7.05;;;4.22;;
20391;SDS011;10355;53.688;10.078;2023-04-06T05:39:09;8.38;;;4.35;;
20391;SDS011;10355;53.688;10.078;2023-04-06T05:42:05;7.03;;;4.10;;
20391;SDS011;10355;53.688;10.078;2023-04-06T05:45:02;8.30;;;4.35;;
20391;SDS011;10355;53.688;10.078;2023-04-06T05:47:46;6.65;;;4.07;;
20391;SDS011;10355;53.688;10.078;2023-04-06T05:50:49;8.43;;;4.20;;
20391;SDS011;10355;53.688;10.078;2023-04-06T05:53:36;5.75;;;4.07;;
20391;SDS011;10355;53.688;10.078;2023-04-06T05:56:19;7.25;;;3.70;;
20391;SDS011;10355;53.688;10.078;2023-04-06T05:59:02;7.75;;;4.05;;
20391;SDS011;10355;53.688;10.078;2023-04-06T06:01:45;9.13;;;4.15;;
20391;SDS011;10355;53.688;10.078;2023-04-06T06:04:29;6.53;;;4.20;;
20391;SDS011;10355;53.688;10.078;2023-04-06T06:07:14;6.75;;;4.30;;
20391;SDS011;10355;53.688;10.078;2023-04-06T06:10:02;6.53;;;4.00;;
20391;SDS011;10355;53.688;10.078;2023-04-06T06:12:49;5.63;;;3.70;;
20391;SDS011;10355;53.688;10.078;2023-04-06T06:15:32;12.63;;;4.80;;
20391;SDS011;10355;53.688;10.078;2023-04-06T06:18:16;9.43;;;4.57;;
20391;SDS011;10355;53.688;10.078;2023-04-06T06:20:59;6.20;;;4.15;;
20391;SDS011;10355;53.688;10.078;2023-04-06T06:23:44;8.15;;;4.35;;
20391;SDS011;10355;53.688;10.078;2023-04-06T06:26:31;6.38;;;3.80;;
20391;SDS011;10355;53.688;10.078;2023-04-06T06:29:14;8.07;;;4.38;;
20391;SDS011;10355;53.688;10.078;2023-04-06T06:31:57;9.98;;;4.32;;
20391;SDS011;10355;53.688;10.078;2023-04-06T06:34:40;6.18;;;3.90;;
20391;SDS011;10355;53.688;10.078;2023-04-06T06:37:24;8.55;;;4.50;;
20391;SDS011;10355;53.688;10.078;2023-04-06T06:40:12;6.65;;;3.95;;
20391;SDS011;10355;53.688;10.078;2023-04-06T06:42:58;6.97;;;4.75;;
20391;SDS011;10355;53.688;10.078;2023-04-06T06:46:01;8.20;;;4.63;;
20391;SDS011;10355;53.688;10.078;2023-04-06T06:48:44;6.88;;;4.50;;
20391;SDS011;10355;53.688;10.078;2023-04-06T06:51:27;8.23;;;4.88;;
20391;SDS011;10355;53.688;10.078;2023-04-06T06:54:10;6.72;;;4.50;;
20391;SDS011;10355;53.688;10.078;2023-04-06T06:56:54;7.22;;;4.75;;
20391;SDS011;10355;53.688;10.078;2023-04-06T06:59:37;7.45;;;4.82;;
20391;SDS011;10355;53.688;10.078;2023-04-06T07:02:20;8.90;;;4.90;;
20391;SDS011;10355;53.688;10.078;2023-04-06T07:05:03;7.47;;;4.70;;
20391;SDS011;10355;53.688;10.078;2023-04-06T07:08:04;7.05;;;4.30;;
20391;SDS011;10355;53.688;10.078;2023-04-06T07:10:47;8.88;;;5.03;;
20391;SDS011;10355;53.688;10.078;2023-04-06T07:13:33;11.93;;;4.80;;
20391;SDS011;10355;53.688;10.078;2023-04-06T07:16:16;9.20;;;4.55;;
20391;SDS011;10355;53.688;10.078;2023-04-06T07:18:59;7.28;;;4.57;;
20391;SDS011;10355;53.688;10.078;2023-04-06T07:21:42;7.35;;;4.13;;
20391;SDS011;10355;53.688;10.078;2023-04-06T07:24:25;10.10;;;4.10;;
20391;SDS011;10355;53.688;10.078;2023-04-06T07:27:07;5.35;;;3.55;;
20391;SDS011;10355;53.688;10.078;2023-04-06T07:29:52;5.72;;;3.92;;
20391;SDS011;10355;53.688;10.078;2023-04-06T07:32:35;5.50;;;3.58;;
20391;SDS011;10355;53.688;10.078;2023-04-06T07:35:18;5.22;;;3.45;;
20391;SDS011;10355;53.688;10.078;2023-04-06T07:38:01;4.72;;;3.47;;
20391;SDS011;10355;53.688;10.078;2023-04-06T07:40:45;5.13;;;3.20;;
20391;SDS011;10355;53.688;10.078;2023-04-06T07:43:28;5.40;;;3.22;;
20391;SDS011;10355;53.688;10.078;2023-04-06T07:46:12;4.97;;;3.10;;
20391;SDS011;10355;53.688;10.078;2023-04-06T07:48:55;5.20;;;3.38;;
20391;SDS011;10355;53.688;10.078;2023-04-06T07:51:39;5.97;;;3.47;;
20391;SDS011;10355;53.688;10.078;2023-04-06T07:54:22;6.93;;;3.25;;
20391;SDS011;10355;53.688;10.078;2023-04-06T07:57:04;6.05;;;3.13;;
20391;SDS011;10355;53.688;10.078;2023-04-06T07:59:47;6.63;;;3.30;;
20391;SDS011;10355;53.688;10.078;2023-04-06T08:02:32;5.28;;;2.80;;
20391;SDS011;10355;53.688;10.078;2023-04-06T08:05:15;5.07;;;2.92;;
20391;SDS011;10355;53.688;10.078;2023-04-06T08:07:59;6.30;;;2.90;;
20391;SDS011;10355;53.688;10.078;2023-04-06T08:10:42;4.65;;;3.00;;
20391;SDS011;10355;53.688;10.078;2023-04-06T08:13:24;5.72;;;3.38;;
20391;SDS011;10355;53.688;10.078;2023-04-06T08:16:07;5.57;;;3.20;;
20391;SDS011;10355;53.688;10.078;2023-04-06T08:18:51;7.95;;;3.03;;
20391;SDS011;10355;53.688;10.078;2023-04-06T08:21:34;11.07;;;2.63;;
20391;SDS011;10355;53.688;10.078;2023-04-06T08:24:17;4.30;;;2.60;;
20391;SDS011;10355;53.688;10.078;2023-04-06T08:27:00;3.97;;;2.72;;
20391;SDS011;10355;53.688;10.078;2023-04-06T08:29:42;4.80;;;2.55;;
20391;SDS011;10355;53.688;10.078;2023-04-06T08:32:25;5.28;;;2.17;;
20391;SDS011;10355;53.688;10.078;2023-04-06T08:35:09;4.53;;;2.35;;
20391;SDS011;10355;53.688;10.078;2023-04-06T08:37:52;5.35;;;2.53;;
20391;SDS011;10355;53.688;10.078;2023-04-06T08:40:38;3.83;;;2.65;;
20391;SDS011;10355;53.688;10.078;2023-04-06T08:43:21;3.60;;;2.45;;
20391;SDS011;10355;53.688;10.078;2023-04-06T08:46:05;3.95;;;2.28;;
20391;SDS011;10355;53.688;10.078;2023-04-06T08:48:48;4.28;;;2.53;;
20391;SDS011;10355;53.688;10.078;2023-04-06T08:51:32;6.50;;;2.75;;
20391;SDS011;10355;53.688;10.078;2023-04-06T08:54:15;5.68;;;2.90;;
20391;SDS011;10355;53.688;10.078;2023-04-06T08:56:58;3.03;;;2.15;;
20391;SDS011;10355;53.688;10.078;2023-04-06T08:59:41;6.43;;;2.92;;
20391;SDS011;10355;53.688;10.078;2023-04-06T09:02:24;4.55;;;2.33;;
20391;SDS011;10355;53.688;10.078;2023-04-06T09:05:07;6.00;;;2.47;;
20391;SDS011;10355;53.688;10.078;2023-04-06T09:07:52;5.55;;;2.67;;
20391;SDS011;10355;53.688;10.078;2023-04-06T09:10:35;4.82;;;2.55;;
20391;SDS011;10355;53.688;10.078;2023-04-06T09:13:18;3.22;;;2.30;;
20391;SDS011;10355;53.688;10.078;2023-04-06T09:16:01;4.18;;;2.60;;
20391;SDS011;10355;53.688;10.078;2023-04-06T09:18:44;4.85;;;2.65;;
20391;SDS011;10355;53.688;10.078;2023-04-06T09:21:27;3.75;;;2.35;;
20391;SDS011;10355;53.688;10.078;2023-04-06T09:24:11;5.55;;;2.67;;
20391;SDS011;10355;53.688;10.078;2023-04-06T09:26:54;3.10;;;2.47;;
20391;SDS011;10355;53.688;10.078;2023-04-06T09:29:36;3.92;;;2.22;;
20391;SDS011;10355;53.688;10.078;2023-04-06T09:32:19;3.63;;;2.63;;
20391;SDS011;10355;53.688;10.078;2023-04-06T09:35:05;3.72;;;2.42;;
20391;SDS011;10355;53.688;10.078;2023-04-06T09:37:49;4.32;;;2.47;;
20391;SDS011;10355;53.688;10.078;2023-04-06T09:40:33;4.10;;;2.50;;
20391;SDS011;10355;53.688;10.078;2023-04-06T09:43:23;7.18;;;2.20;;
20391;SDS011;10355;53.688;10.078;2023-04-06T09:46:06;4.63;;;2.08;;
20391;SDS011;10355;53.688;10.078;2023-04-06T09:48:49;4.40;;;2.40;;
20391;SDS011;10355;53.688;10.078;2023-04-06T09:51:35;3.83;;;2.20;;
20391;SDS011;10355;53.688;10.078;2023-04-06T09:54:21;4.10;;;2.50;;
20391;SDS011;10355;53.688;10.078;2023-04-06T09:57:07;3.45;;;2.33;;
20391;SDS011;10355;53.688;10.078;2023-04-06T09:59:54;4.13;;;2.20;;
20391;SDS011;10355;53.688;10.078;2023-04-06T10:02:41;4.07;;;2.22;;
20391;SDS011;10355;53.688;10.078;2023-04-06T10:05:29;3.90;;;2.08;;
20391;SDS011;10355;53.688;10.078;2023-04-06T10:08:14;5.15;;;2.47;;
20391;SDS011;10355;53.688;10.078;2023-04-06T10:10:57;3.50;;;2.33;;
20391;SDS011;10355;53.688;10.078;2023-04-06T10:13:43;4.85;;;2.60;;
20391;SDS011;10355;53.688;10.078;2023-04-06T10:16:28;4.10;;;2.40;;
20391;SDS011;10355;53.688;10.078;2023-04-06T10:19:12;4.10;;;2.60;;
20391;SDS011;10355;53.688;10.078;2023-04-06T10:21:55;6.10;;;3.00;;
20391;SDS011;10355;53.688;10.078;2023-04-06T10:24:40;5.85;;;2.70;;
20391;SDS011;10355;53.688;10.078;2023-04-06T10:27:29;6.38;;;3.03;;
20391;SDS011;10355;53.688;10.078;2023-04-06T10:30:15;6.82;;;3.22;;
20391;SDS011;10355;53.688;10.078;2023-04-06T10:32:57;6.60;;;3.33;;
20391;SDS011;10355;53.688;10.078;2023-04-06T10:35:40;4.47;;;2.58;;
20391;SDS011;10355;53.688;10.078;2023-04-06T10:38:32;5.13;;;2.72;;
20391;SDS011;10355;53.688;10.078;2023-04-06T10:41:18;5.07;;;2.80;;
20391;SDS011;10355;53.688;10.078;2023-04-06T10:44:02;5.60;;;2.65;;
20391;SDS011;10355;53.688;10.078;2023-04-06T10:46:53;5.07;;;2.65;;
20391;SDS011;10355;53.688;10.078;2023-04-06T10:49:37;4.15;;;2.38;;
20391;SDS011;10355;53.688;10.078;2023-04-06T10:52:19;5.30;;;2.58;;
20391;SDS011;10355;53.688;10.078;2023-04-06T10:55:02;8.77;;;3.10;;
20391;SDS011;10355;53.688;10.078;2023-04-06T10:57:46;4.70;;;3.17;;
20391;SDS011;10355;53.688;10.078;2023-04-06T11:00:28;4.63;;;3.00;;
20391;SDS011;10355;53.688;10.078;2023-04-06T11:03:29;5.88;;;3.60;;
20391;SDS011;10355;53.688;10.078;2023-04-06T11:06:17;5.68;;;3.42;;
20391;SDS011;10355;53.688;10.078;2023-04-06T11:09:00;6.63;;;4.05;;
20391;SDS011;10355;53.688;10.078;2023-04-06T11:11:42;6.65;;;3.15;;
20391;SDS011;10355;53.688;10.078;2023-04-06T11:14:25;5.30;;;3.30;;
20391;SDS011;10355;53.688;10.078;2023-04-06T11:17:08;6.57;;;3.33;;
20391;SDS011;10355;53.688;10.078;2023-04-06T11:19:53;7.05;;;3.95;;
20391;SDS011;10355;53.688;10.078;2023-04-06T11:22:36;4.88;;;3.25;;
20391;SDS011;10355;53.688;10.078;2023-04-06T11:25:18;6.43;;;3.88;;
20391;SDS011;10355;53.688;10.078;2023-04-06T11:28:01;7.90;;;4.25;;
20391;SDS011;10355;53.688;10.078;2023-04-06T11:30:45;6.72;;;3.72;;
20391;SDS011;10355;53.688;10.078;2023-04-06T11:33:27;7.47;;;3.83;;
20391;SDS011;10355;53.688;10.078;2023-04-06T11:36:13;7.85;;;4.30;;
20391;SDS011;10355;53.688;10.078;2023-04-06T11:38:57;8.13;;;4.68;;
20391;SDS011;10355;53.688;10.078;2023-04-06T11:41:40;9.80;;;4.43;;
20391;SDS011;10355;53.688;10.078;2023-04-06T11:44:31;6.88;;;4.38;;
20391;SDS011;10355;53.688;10.078;2023-04-06T11:47:14;6.65;;;4.03;;
20391;SDS011;10355;53.688;10.078;2023-04-06T11:50:04;7.25;;;4.70;;
20391;SDS011;10355;53.688;10.078;2023-04-06T11:52:49;8.15;;;4.82;;
20391;SDS011;10355;53.688;10.078;2023-04-06T11:55:40;6.82;;;4.00;;
20391;SDS011;10355;53.688;10.078;2023-04-06T11:58:26;9.40;;;4.95;;
20391;SDS011;10355;53.688;10.078;2023-04-06T12:01:09;7.97;;;4.82;;
20391;SDS011;10355;53.688;10.078;2023-04-06T12:03:52;8.13;;;5.03;;
20391;SDS011;10355;53.688;10.078;2023-04-06T12:06:35;9.27;;;4.68;;
20391;SDS011;10355;53.688;10.078;2023-04-06T12:09:19;9.93;;;5.40;;
20391;SDS011;10355;53.688;10.078;2023-04-06T12:12:02;7.78;;;4.30;;
20391;SDS011;10355;53.688;10.078;2023-04-06T12:14:45;7.50;;;4.55;;
20391;SDS011;10355;53.688;10.078;2023-04-06T12:17:28;8.02;;;4.90;;
20391;SDS011;10355;53.688;10.078;2023-04-06T12:20:11;10.32;;;4.80;;
20391;SDS011;10355;53.688;10.078;2023-04-06T12:23:07;7.43;;;4.43;;
20391;SDS011;10355;53.688;10.078;2023-04-06T12:25:51;9.05;;;4.55;;
20391;SDS011;10355;53.688;10.078;2023-04-06T12:28:34;10.32;;;4.65;;
20391;SDS011;10355;53.688;10.078;2023-04-06T12:31:17;8.88;;;4.40;;
20391;SDS011;10355;53.688;10.078;2023-04-06T12:34:01;7.20;;;3.95;;
20391;SDS011;10355;53.688;10.078;2023-04-06T12:36:44;8.07;;;4.53;;
20391;SDS011;10355;53.688;10.078;2023-04-06T12:39:27;5.47;;;3.78;;
20391;SDS011;10355;53.688;10.078;2023-04-06T12:42:11;5.57;;;3.90;;
20391;SDS011;10355;53.688;10.078;2023-04-06T12:44:55;7.13;;;4.35;;
20391;SDS011;10355;53.688;10.078;2023-04-06T12:47:38;7.43;;;4.38;;
20391;SDS011;10355;53.688;10.078;2023-04-06T12:50:21;7.97;;;4.35;;
20391;SDS011;10355;53.688;10.078;2023-04-06T12:53:03;6.45;;;3.75;;
20391;SDS011;10355;53.688;10.078;2023-04-06T12:55:46;7.22;;;4.35;;
20391;SDS011;10355;53.688;10.078;2023-04-06T12:58:31;6.40;;;3.80;;
20391;SDS011;10355;53.688;10.078;2023-04-06T13:01:14;7.35;;;4.03;;
20391;SDS011;10355;53.688;10.078;2023-04-06T13:03:57;6.38;;;4.38;;
20391;SDS011;10355;53.688;10.078;2023-04-06T13:06:40;6.93;;;4.07;;
20391;SDS011;10355;53.688;10.078;2023-04-06T13:09:23;6.20;;;4.40;;
20391;SDS011;10355;53.688;10.078;2023-04-06T13:12:06;7.82;;;4.18;;
20391;SDS011;10355;53.688;10.078;2023-04-06T13:14:50;7.35;;;4.40;;
20391;SDS011;10355;53.688;10.078;2023-04-06T13:17:34;6.28;;;3.78;;
20391;SDS011;10355;53.688;10.078;2023-04-06T13:20:17;6.90;;;4.32;;
20391;SDS011;10355;53.688;10.078;2023-04-06T13:23:00;9.13;;;4.40;;
20391;SDS011;10355;53.688;10.078;2023-04-06T13:25:42;7.07;;;4.47;;
20391;SDS011;10355;53.688;10.078;2023-04-06T13:28:25;8.57;;;4.55;;
20391;SDS011;10355;53.688;10.078;2023-04-06T13:31:10;6.35;;;4.10;;
20391;SDS011;10355;53.688;10.078;2023-04-06T13:33:53;6.38;;;4.20;;
20391;SDS011;10355;53.688;10.078;2023-04-06T13:36:36;7.30;;;4.22;;
20391;SDS011;10355;53.688;10.078;2023-04-06T13:39:20;5.63;;;4.10;;
20391;SDS011;10355;53.688;10.078;2023-04-06T13:42:03;8.23;;;4.57;;
20391;SDS011;10355;53.688;10.078;2023-04-06T13:44:46;7.97;;;4.43;;
20391;SDS011;10355;53.688;10.078;2023-04-06T13:47:30;7.05;;;4.20;;
20391;SDS011;10355;53.688;10.078;2023-04-06T13:50:14;9.27;;;4.70;;
20391;SDS011;10355;53.688;10.078;2023-04-06T13:52:57;7.95;;;4.68;;
20391;SDS011;10355;53.688;10.078;2023-04-06T13:55:39;7.90;;;4.18;;
20391;SDS011;10355;53.688;10.078;2023-04-06T13:58:22;8.35;;;4.45;;
20391;SDS011;10355;53.688;10.078;2023-04-06T14:01:06;8.38;;;4.22;;
20391;SDS011;10355;53.688;10.078;2023-04-06T14:03:52;6.45;;;4.22;;
20391;SDS011;10355;53.688;10.078;2023-04-06T14:06:36;7.32;;;4.10;;
20391;SDS011;10355;53.688;10.078;2023-04-06T14:09:19;7.57;;;4.22;;
20391;SDS011;10355;53.688;10.078;2023-04-06T14:12:02;6.60;;;4.45;;
20391;SDS011;10355;53.688;10.078;2023-04-06T14:14:44;7.53;;;4.47;;
20391;SDS011;10355;53.688;10.078;2023-04-06T14:17:27;6.72;;;4.32;;
20391;SDS011;10355;53.688;10.078;2023-04-06T14:20:11;11.05;;;4.75;;
20391;SDS011;10355;53.688;10.078;2023-04-06T14:22:56;8.45;;;4.40;;
20391;SDS011;10355;53.688;10.078;2023-04-06T14:25:38;6.75;;;4.18;;
20391;SDS011;10355;53.688;10.078;2023-04-06T14:28:21;8.10;;;4.43;;
20391;SDS011;10355;53.688;10.078;2023-04-06T14:31:09;8.02;;;4.40;;
20391;SDS011;10355;53.688;10.078;2023-04-06T14:33:53;7.70;;;4.47;;
20391;SDS011;10355;53.688;10.078;2023-04-06T14:36:37;9.20;;;4.47;;
20391;SDS011;10355;53.688;10.078;2023-04-06T14:39:20;8.40;;;4.75;;
20391;SDS011;10355;53.688;10.078;2023-04-06T14:42:02;7.43;;;4.57;;
20391;SDS011;10355;53.688;10.078;2023-04-06T14:44:45;7.03;;;4.60;;
20391;SDS011;10355;53.688;10.078;2023-04-06T14:47:27;6.88;;;4.35;;
20391;SDS011;10355;53.688;10.078;2023-04-06T14:50:10;6.80;;;4.47;;
20391;SDS011;10355;53.688;10.078;2023-04-06T14:52:54;8.05;;;4.85;;
20391;SDS011;10355;53.688;10.078;2023-04-06T14:55:38;7.50;;;5.07;;
20391;SDS011;10355;53.688;10.078;2023-04-06T14:58:22;7.03;;;4.53;;
20391;SDS011;10355;53.688;10.078;2023-04-06T15:01:04;11.13;;;4.93;;
20391;SDS011;10355;53.688;10.078;2023-04-06T15:03:47;9.02;;;4.78;;
20391;SDS011;10355;53.688;10.078;2023-04-06T15:06:31;7.82;;;4.80;;
20391;SDS011;10355;53.688;10.078;2023-04-06T15:09:15;9.48;;;5.00;;
20391;SDS011;10355;53.688;10.078;2023-04-06T15:11:58;7.20;;;4.72;;
20391;SDS011;10355;53.688;10.078;2023-04-06T15:14:41;6.85;;;4.60;;
20391;SDS011;10355;53.688;10.078;2023-04-06T15:17:24;6.82;;;4.10;;
20391;SDS011;10355;53.688;10.078;2023-04-06T15:20:08;7.65;;;4.38;;
20391;SDS011;10355;53.688;10.078;2023-04-06T15:22:50;6.95;;;4.53;;
20391;SDS011;10355;53.688;10.078;2023-04-06T15:25:34;9.20;;;4.90;;
20391;SDS011;10355;53.688;10.078;2023-04-06T15:28:17;7.60;;;4.32;;
20391;SDS011;10355;53.688;10.078;2023-04-06T15:31:00;7.15;;;4.40;;
20391;SDS011;10355;53.688;10.078;2023-04-06T15:33:49;8.88;;;4.72;;
20391;SDS011;10355;53.688;10.078;2023-04-06T15:36:31;6.70;;;4.30;;
20391;SDS011;10355;53.688;10.078;2023-04-06T15:39:15;7.82;;;4.63;;
20391;SDS011;10355;53.688;10.078;2023-04-06T15:41:59;6.40;;;4.40;;
20391;SDS011;10355;53.688;10.078;2023-04-06T15:44:42;7.07;;;4.50;;
20391;SDS011;10355;53.688;10.078;2023-04-06T15:47:25;7.63;;;4.18;;
20391;SDS011;10355;53.688;10.078;2023-04-06T15:50:08;8.40;;;4.55;;
20391;SDS011;10355;53.688;10.078;2023-04-06T15:52:51;8.15;;;4.40;;
20391;SDS011;10355;53.688;10.078;2023-04-06T15:55:33;6.43;;;4.35;;
20391;SDS011;10355;53.688;10.078;2023-04-06T15:58:17;6.45;;;4.18;;
20391;SDS011;10355;53.688;10.078;2023-04-06T16:01:00;7.40;;;3.97;;
20391;SDS011;10355;53.688;10.078;2023-04-06T16:03:43;7.82;;;4.70;;
20391;SDS011;10355;53.688;10.078;2023-04-06T16:06:26;7.95;;;4.70;;
20391;SDS011;10355;53.688;10.078;2023-04-06T16:09:09;9.20;;;5.00;;
20391;SDS011;10355;53.688;10.078;2023-04-06T16:11:51;8.18;;;4.47;;
20391;SDS011;10355;53.688;10.078;2023-04-06T16:14:35;7.35;;;4.32;;
20391;SDS011;10355;53.688;10.078;2023-04-06T16:17:18;5.97;;;4.50;;